PWSweather.com
Personal Weather Stations
Station Observations
AC5JC
Greenleaf Peninsula, Waco, Waco, TX 76710

Greenleaf Peninsula, WacoWaco, TX 76710

Lat: 31.565, Lon: -97.198

Elevation: 570

Station Type: Ambient WS-1400IP

http://ac5jc.dyndns.org

High Low Average
Temperature 96.1°F35.6°C 76.1°F24.5°C 84.2°F29.0°C
Dew Point 74.0°F23.3°C 59.0°F15.0°C 67.8°F19.9°C
Winds 3.5 mph 5.6 kmh Calm Calm 1.0 mph SSW1.6 kmh SSW
Wind Gusts 9.8 mph15.8 kmh -- 2.0 mph3.2 kmh
Humidity 92% 30% 61%
Pressure 29.44 in997.0 mb 29.32 in992.9 mb -
Precipitation 0.00 in0.0 mm - -
Hour Temp Dew Point Humidity Winds Wind Gusts Pressure Precip Precip Rate Daily Precip Total
12:00 AM 77.4°F25.2°C 71.7°F22.1°C 83% Calm Calm -- 29.36 in994.2 mb 0.00 in0.0 mm 0.00 in0.0 mm 0.00 in0.0 mm
12:05 AM 77.3°F25.2°C 71.9°F22.2°C 83% Calm Calm -- 29.36 in994.2 mb 0.00 in0.0 mm 0.00 in0.0 mm 0.00 in0.0 mm
12:10 AM 77.2°F25.1°C 72.0°F22.2°C 84% Calm Calm -- 29.36 in994.2 mb 0.00 in0.0 mm 0.00 in0.0 mm 0.00 in0.0 mm
12:15 AM 77.3°F25.2°C 72.1°F22.3°C 84% Calm Calm -- 29.36 in994.2 mb 0.00 in0.0 mm 0.00 in0.0 mm 0.00 in0.0 mm
12:20 AM 77.5°F25.3°C 72.2°F22.3°C 84% Calm Calm -- 29.36 in994.2 mb 0.00 in0.0 mm 0.00 in0.0 mm 0.00 in0.0 mm
12:25 AM 77.9°F25.5°C 72.6°F22.6°C 84% Calm Calm -- 29.36 in994.2 mb 0.00 in0.0 mm 0.00 in0.0 mm 0.00 in0.0 mm
12:30 AM 78.6°F25.9°C 73.0°F22.8°C 83% Calm Calm -- 29.35 in993.9 mb 0.00 in0.0 mm 0.00 in0.0 mm 0.00 in0.0 mm
12:35 AM 78.6°F25.9°C 73.0°F22.8°C 83% Calm Calm -- 29.34 in993.6 mb 0.00 in0.0 mm 0.00 in0.0 mm 0.00 in0.0 mm
12:40 AM 78.4°F25.8°C 72.8°F22.7°C 83% Calm Calm -- 29.35 in993.9 mb 0.00 in0.0 mm 0.00 in0.0 mm 0.00 in0.0 mm
12:45 AM 78.4°F25.8°C 73.1°F22.8°C 84% Calm Calm -- 29.35 in993.9 mb 0.00 in0.0 mm 0.00 in0.0 mm 0.00 in0.0 mm
12:50 AM 78.6°F25.9°C 73.3°F22.9°C 84% Calm Calm -- 29.35 in993.9 mb 0.00 in0.0 mm 0.00 in0.0 mm 0.00 in0.0 mm
12:55 AM 78.6°F25.9°C 73.3°F22.9°C 84% Calm Calm -- 29.35 in993.9 mb 0.00 in0.0 mm 0.00 in0.0 mm 0.00 in0.0 mm
01:00 AM 78.6°F25.9°C 73.0°F22.8°C 83% Calm Calm -- 29.35 in993.9 mb 0.00 in0.0 mm 0.00 in0.0 mm 0.00 in0.0 mm
01:05 AM 78.6°F25.9°C 73.0°F22.8°C 83% Calm Calm -- 29.35 in993.9 mb 0.00 in0.0 mm 0.00 in0.0 mm 0.00 in0.0 mm
01:10 AM 78.6°F25.9°C 73.0°F22.8°C 83% Calm Calm -- 29.35 in993.9 mb 0.00 in0.0 mm 0.00 in0.0 mm 0.00 in0.0 mm
01:15 AM 78.6°F25.9°C 73.0°F22.8°C 83% Calm Calm -- 29.35 in993.9 mb 0.00 in0.0 mm 0.00 in0.0 mm 0.00 in0.0 mm
01:20 AM 78.6°F25.9°C 73.0°F22.8°C 83% Calm Calm -- 29.35 in993.9 mb 0.00 in0.0 mm 0.00 in0.0 mm 0.00 in0.0 mm
01:25 AM 78.6°F25.9°C 73.0°F22.8°C 83% Calm Calm -- 29.34 in993.6 mb 0.00 in0.0 mm 0.00 in0.0 mm 0.00 in0.0 mm
01:30 AM 78.6°F25.9°C 73.0°F22.8°C 83% Calm Calm -- 29.35 in993.9 mb 0.00 in0.0 mm 0.00 in0.0 mm 0.00 in0.0 mm
01:35 AM 78.6°F25.9°C 73.0°F22.8°C 83% Calm Calm -- 29.36 in994.2 mb 0.00 in0.0 mm 0.00 in0.0 mm 0.00 in0.0 mm
01:40 AM 78.6°F25.9°C 73.0°F22.8°C 83% Calm Calm -- 29.36 in994.2 mb 0.00 in0.0 mm 0.00 in0.0 mm 0.00 in0.0 mm
01:45 AM 78.6°F25.9°C 73.1°F22.8°C 83% Calm Calm -- 29.36 in994.2 mb 0.00 in0.0 mm 0.00 in0.0 mm 0.00 in0.0 mm
01:50 AM 78.6°F25.9°C 73.3°F22.9°C 84% Calm Calm -- 29.36 in994.2 mb 0.00 in0.0 mm 0.00 in0.0 mm 0.00 in0.0 mm
01:55 AM 78.6°F25.9°C 73.3°F22.9°C 84% Calm Calm -- 29.36 in994.2 mb 0.00 in0.0 mm 0.00 in0.0 mm 0.00 in0.0 mm
02:00 AM 78.6°F25.9°C 73.3°F22.9°C 84% 0.1 mph W0.2 kmh W 2.5 mph4.0 kmh 29.36 in994.2 mb 0.00 in0.0 mm 0.00 in0.0 mm 0.00 in0.0 mm
02:05 AM 78.6°F25.9°C 73.3°F22.9°C 84% Calm Calm -- 29.36 in994.2 mb 0.00 in0.0 mm 0.00 in0.0 mm 0.00 in0.0 mm
02:10 AM 78.6°F25.9°C 73.3°F22.9°C 84% Calm Calm -- 29.36 in994.2 mb 0.00 in0.0 mm 0.00 in0.0 mm 0.00 in0.0 mm
02:15 AM 78.5°F25.8°C 73.3°F22.9°C 84% Calm Calm -- 29.36 in994.2 mb 0.00 in0.0 mm 0.00 in0.0 mm 0.00 in0.0 mm
02:20 AM 78.3°F25.7°C 73.1°F22.8°C 84% Calm Calm -- 29.36 in994.2 mb 0.00 in0.0 mm 0.00 in0.0 mm 0.00 in0.0 mm
02:25 AM 78.1°F25.6°C 72.9°F22.7°C 84% Calm Calm -- 29.36 in994.2 mb 0.00 in0.0 mm 0.00 in0.0 mm 0.00 in0.0 mm
02:30 AM 77.2°F25.1°C 72.3°F22.4°C 85% Calm Calm -- 29.36 in994.2 mb 0.00 in0.0 mm 0.00 in0.0 mm 0.00 in0.0 mm
02:35 AM 77.2°F25.1°C 72.3°F22.4°C 85% Calm Calm -- 29.36 in994.2 mb 0.00 in0.0 mm 0.00 in0.0 mm 0.00 in0.0 mm
02:40 AM 77.2°F25.1°C 72.3°F22.4°C 85% Calm Calm -- 29.36 in994.2 mb 0.00 in0.0 mm 0.00 in0.0 mm 0.00 in0.0 mm
02:45 AM 77.2°F25.1°C 72.3°F22.4°C 85% Calm Calm -- 29.36 in994.2 mb 0.00 in0.0 mm 0.00 in0.0 mm 0.00 in0.0 mm
02:50 AM 77.2°F25.1°C 72.3°F22.4°C 85% Calm Calm -- 29.36 in994.2 mb 0.00 in0.0 mm 0.00 in0.0 mm 0.00 in0.0 mm
02:55 AM 77.2°F25.1°C 72.4°F22.4°C 85% Calm Calm -- 29.35 in993.9 mb 0.00 in0.0 mm 0.00 in0.0 mm 0.00 in0.0 mm
03:00 AM 77.2°F25.1°C 72.7°F22.6°C 86% 0.1 mph W0.2 kmh W 2.5 mph4.0 kmh 29.35 in993.9 mb 0.00 in0.0 mm 0.00 in0.0 mm 0.00 in0.0 mm
03:05 AM 77.2°F25.1°C 72.7°F22.6°C 86% Calm Calm -- 29.36 in994.2 mb 0.00 in0.0 mm 0.00 in0.0 mm 0.00 in0.0 mm
03:10 AM 77.2°F25.1°C 72.7°F22.6°C 86% Calm Calm -- 29.36 in994.2 mb 0.00 in0.0 mm 0.00 in0.0 mm 0.00 in0.0 mm
03:15 AM 77.2°F25.1°C 72.7°F22.6°C 86% Calm Calm -- 29.35 in993.9 mb 0.00 in0.0 mm 0.00 in0.0 mm 0.00 in0.0 mm
03:20 AM 77.2°F25.1°C 72.7°F22.6°C 86% Calm Calm -- 29.36 in994.2 mb 0.00 in0.0 mm 0.00 in0.0 mm 0.00 in0.0 mm
03:25 AM 77.2°F25.1°C 72.9°F22.7°C 87% 0.2 mph W0.3 kmh W 2.5 mph4.0 kmh 29.36 in994.2 mb 0.00 in0.0 mm 0.00 in0.0 mm 0.00 in0.0 mm
03:30 AM 77.2°F25.1°C 73.0°F22.8°C 87% Calm Calm -- 29.36 in994.2 mb 0.00 in0.0 mm 0.00 in0.0 mm 0.00 in0.0 mm
03:35 AM 77.2°F25.1°C 73.0°F22.8°C 87% Calm Calm -- 29.36 in994.2 mb 0.00 in0.0 mm 0.00 in0.0 mm 0.00 in0.0 mm
03:40 AM 77.2°F25.1°C 73.0°F22.8°C 87% Calm Calm 2.5 mph4.0 kmh 29.35 in993.9 mb 0.00 in0.0 mm 0.00 in0.0 mm 0.00 in0.0 mm
03:45 AM 77.2°F25.1°C 73.0°F22.8°C 87% Calm Calm 2.5 mph4.0 kmh 29.35 in993.9 mb 0.00 in0.0 mm 0.00 in0.0 mm 0.00 in0.0 mm
03:50 AM 77.2°F25.1°C 73.4°F23.0°C 88% Calm Calm -- 29.36 in994.2 mb 0.00 in0.0 mm 0.00 in0.0 mm 0.00 in0.0 mm
03:55 AM 77.2°F25.1°C 73.4°F23.0°C 88% Calm Calm -- 29.35 in993.9 mb 0.00 in0.0 mm 0.00 in0.0 mm 0.00 in0.0 mm
04:00 AM 77.2°F25.1°C 73.4°F23.0°C 88% Calm Calm -- 29.36 in994.2 mb 0.00 in0.0 mm 0.00 in0.0 mm 0.00 in0.0 mm
04:05 AM 77.2°F25.1°C 73.4°F23.0°C 88% Calm Calm -- 29.36 in994.2 mb 0.00 in0.0 mm 0.00 in0.0 mm 0.00 in0.0 mm
04:10 AM 77.2°F25.1°C 73.0°F22.8°C 87% Calm Calm -- 29.36 in994.2 mb 0.00 in0.0 mm 0.00 in0.0 mm 0.00 in0.0 mm
04:15 AM 77.2°F25.1°C 73.0°F22.8°C 87% Calm Calm -- 29.36 in994.2 mb 0.00 in0.0 mm 0.00 in0.0 mm 0.00 in0.0 mm
04:20 AM 77.2°F25.1°C 73.0°F22.8°C 87% Calm Calm -- 29.36 in994.2 mb 0.00 in0.0 mm 0.00 in0.0 mm 0.00 in0.0 mm
04:25 AM 77.2°F25.1°C 72.7°F22.6°C 86% Calm Calm -- 29.36 in994.2 mb 0.00 in0.0 mm 0.00 in0.0 mm 0.00 in0.0 mm
04:30 AM 77.2°F25.1°C 72.7°F22.6°C 86% Calm Calm -- 29.36 in994.2 mb 0.00 in0.0 mm 0.00 in0.0 mm 0.00 in0.0 mm
04:35 AM 77.2°F25.1°C 72.7°F22.6°C 86% Calm Calm -- 29.36 in994.2 mb 0.00 in0.0 mm 0.00 in0.0 mm 0.00 in0.0 mm
04:40 AM 77.2°F25.1°C 72.7°F22.6°C 86% Calm Calm -- 29.36 in994.2 mb 0.00 in0.0 mm 0.00 in0.0 mm 0.00 in0.0 mm
04:45 AM 77.2°F25.1°C 72.7°F22.6°C 86% 0.1 mph W0.2 kmh W 2.5 mph4.0 kmh 29.36 in994.2 mb 0.00 in0.0 mm 0.00 in0.0 mm 0.00 in0.0 mm
04:50 AM 77.2°F25.1°C 73.0°F22.8°C 87% Calm Calm -- 29.36 in994.2 mb 0.00 in0.0 mm 0.00 in0.0 mm 0.00 in0.0 mm
04:55 AM 77.2°F25.1°C 73.0°F22.8°C 87% Calm Calm -- 29.35 in993.9 mb 0.00 in0.0 mm 0.00 in0.0 mm 0.00 in0.0 mm
05:00 AM 77.2°F25.1°C 73.0°F22.8°C 87% Calm Calm -- 29.36 in994.2 mb 0.00 in0.0 mm 0.00 in0.0 mm 0.00 in0.0 mm
05:05 AM 77.2°F25.1°C 73.0°F22.8°C 87% Calm Calm -- 29.36 in994.2 mb 0.00 in0.0 mm 0.00 in0.0 mm 0.00 in0.0 mm
05:10 AM 77.2°F25.1°C 73.1°F22.8°C 87% Calm Calm -- 29.36 in994.2 mb 0.00 in0.0 mm 0.00 in0.0 mm 0.00 in0.0 mm
05:15 AM 77.2°F25.1°C 73.4°F23.0°C 88% Calm Calm -- 29.36 in994.2 mb 0.00 in0.0 mm 0.00 in0.0 mm 0.00 in0.0 mm
05:20 AM 77.2°F25.1°C 73.4°F23.0°C 88% Calm Calm -- 29.36 in994.2 mb 0.00 in0.0 mm 0.00 in0.0 mm 0.00 in0.0 mm
05:25 AM 77.2°F25.1°C 73.4°F23.0°C 88% 0.1 mph W0.2 kmh W 2.5 mph4.0 kmh 29.36 in994.2 mb 0.00 in0.0 mm 0.00 in0.0 mm 0.00 in0.0 mm
05:30 AM 77.2°F25.1°C 73.4°F23.0°C 88% Calm Calm -- 29.36 in994.2 mb 0.00 in0.0 mm 0.00 in0.0 mm 0.00 in0.0 mm
05:35 AM 77.2°F25.1°C 73.4°F23.0°C 88% Calm Calm -- 29.36 in994.2 mb 0.00 in0.0 mm 0.00 in0.0 mm 0.00 in0.0 mm
05:40 AM 77.2°F25.1°C 73.4°F23.0°C 88% Calm Calm -- 29.36 in994.2 mb 0.00 in0.0 mm 0.00 in0.0 mm 0.00 in0.0 mm
05:45 AM 77.1°F25.1°C 73.5°F23.1°C 89% 0.2 mph W0.3 kmh W 2.5 mph4.0 kmh 29.37 in994.6 mb 0.00 in0.0 mm 0.00 in0.0 mm 0.00 in0.0 mm
05:50 AM 77.0°F25.0°C 73.5°F23.1°C 89% Calm Calm -- 29.37 in994.6 mb 0.00 in0.0 mm 0.00 in0.0 mm 0.00 in0.0 mm
05:55 AM 76.8°F24.9°C 73.6°F23.1°C 90% Calm Calm -- 29.37 in994.6 mb 0.00 in0.0 mm 0.00 in0.0 mm 0.00 in0.0 mm
06:00 AM 76.8°F24.9°C 73.8°F23.2°C 90% Calm Calm -- 29.37 in994.6 mb 0.00 in0.0 mm 0.00 in0.0 mm 0.00 in0.0 mm
06:05 AM 76.8°F24.9°C 74.0°F23.3°C 91% Calm Calm -- 29.37 in994.6 mb 0.00 in0.0 mm 0.00 in0.0 mm 0.00 in0.0 mm
06:10 AM 76.6°F24.8°C 73.7°F23.2°C 91% Calm Calm -- 29.37 in994.6 mb 0.00 in0.0 mm 0.00 in0.0 mm 0.00 in0.0 mm
06:15 AM 76.4°F24.7°C 73.6°F23.1°C 91% Calm Calm -- 29.37 in994.6 mb 0.00 in0.0 mm 0.00 in0.0 mm 0.00 in0.0 mm
06:20 AM 76.3°F24.6°C 73.5°F23.1°C 91% Calm Calm -- 29.37 in994.6 mb 0.00 in0.0 mm 0.00 in0.0 mm 0.00 in0.0 mm
06:25 AM 76.3°F24.6°C 73.8°F23.2°C 92% Calm Calm -- 29.37 in994.6 mb 0.00 in0.0 mm 0.00 in0.0 mm 0.00 in0.0 mm
06:30 AM 76.2°F24.6°C 73.7°F23.2°C 92% Calm Calm -- 29.37 in994.6 mb 0.00 in0.0 mm 0.00 in0.0 mm 0.00 in0.0 mm
06:35 AM 76.1°F24.5°C 73.6°F23.1°C 92% Calm Calm -- 29.38 in994.9 mb 0.00 in0.0 mm 0.00 in0.0 mm 0.00 in0.0 mm
06:40 AM 76.1°F24.5°C 73.6°F23.1°C 92% Calm Calm -- 29.38 in994.9 mb 0.00 in0.0 mm 0.00 in0.0 mm 0.00 in0.0 mm
06:45 AM 76.1°F24.5°C 73.6°F23.1°C 92% Calm Calm -- 29.38 in994.9 mb 0.00 in0.0 mm 0.00 in0.0 mm 0.00 in0.0 mm
06:50 AM 76.1°F24.5°C 73.6°F23.1°C 92% Calm Calm -- 29.38 in994.9 mb 0.00 in0.0 mm 0.00 in0.0 mm 0.00 in0.0 mm
06:55 AM 76.3°F24.6°C 73.8°F23.2°C 92% Calm Calm -- 29.38 in994.9 mb 0.00 in0.0 mm 0.00 in0.0 mm 0.00 in0.0 mm
07:00 AM 76.3°F24.6°C 73.8°F23.2°C 92% Calm Calm -- 29.38 in994.9 mb 0.00 in0.0 mm 0.00 in0.0 mm 0.00 in0.0 mm
07:05 AM 76.3°F24.6°C 73.8°F23.2°C 92% Calm Calm -- 29.38 in994.9 mb 0.00 in0.0 mm 0.00 in0.0 mm 0.00 in0.0 mm
07:10 AM 76.3°F24.6°C 73.8°F23.2°C 92% Calm Calm -- 29.38 in994.9 mb 0.00 in0.0 mm 0.00 in0.0 mm 0.00 in0.0 mm
07:15 AM 76.5°F24.7°C 74.0°F23.3°C 92% Calm Calm -- 29.38 in994.9 mb 0.00 in0.0 mm 0.00 in0.0 mm 0.00 in0.0 mm
07:20 AM 76.3°F24.6°C 73.8°F23.2°C 92% Calm Calm -- 29.39 in995.3 mb 0.00 in0.0 mm 0.00 in0.0 mm 0.00 in0.0 mm
07:25 AM 76.3°F24.6°C 73.8°F23.2°C 92% Calm Calm -- 29.39 in995.3 mb 0.00 in0.0 mm 0.00 in0.0 mm 0.00 in0.0 mm
07:30 AM 76.3°F24.6°C 73.7°F23.2°C 92% Calm Calm -- 29.39 in995.3 mb 0.00 in0.0 mm 0.00 in0.0 mm 0.00 in0.0 mm
07:35 AM 76.5°F24.7°C 73.7°F23.2°C 91% Calm Calm -- 29.39 in995.3 mb 0.00 in0.0 mm 0.00 in0.0 mm 0.00 in0.0 mm
07:40 AM 76.5°F24.7°C 73.7°F23.2°C 91% Calm Calm -- 29.40 in995.6 mb 0.00 in0.0 mm 0.00 in0.0 mm 0.00 in0.0 mm
07:45 AM 76.5°F24.7°C 73.5°F23.1°C 91% Calm Calm -- 29.40 in995.6 mb 0.00 in0.0 mm 0.00 in0.0 mm 0.00 in0.0 mm
07:50 AM 76.5°F24.7°C 73.3°F22.9°C 90% Calm Calm -- 29.39 in995.3 mb 0.00 in0.0 mm 0.00 in0.0 mm 0.00 in0.0 mm
07:55 AM 77.2°F25.1°C 73.8°F23.2°C 89% Calm Calm -- 29.39 in995.3 mb 0.00 in0.0 mm 0.00 in0.0 mm 0.00 in0.0 mm
08:00 AM 77.2°F25.1°C 72.8°F22.7°C 86% Calm Calm -- 29.40 in995.6 mb 0.00 in0.0 mm 0.00 in0.0 mm 0.00 in0.0 mm
08:05 AM 77.2°F25.1°C 71.6°F22.0°C 83% Calm Calm -- 29.40 in995.6 mb 0.00 in0.0 mm 0.00 in0.0 mm 0.00 in0.0 mm
08:10 AM 77.2°F25.1°C 70.6°F21.4°C 80% Calm Calm -- 29.40 in995.6 mb 0.00 in0.0 mm 0.00 in0.0 mm 0.00 in0.0 mm
08:15 AM 77.4°F25.2°C 69.7°F20.9°C 77% 0.2 mph W0.3 kmh W 2.5 mph4.0 kmh 29.40 in995.6 mb 0.00 in0.0 mm 0.00 in0.0 mm 0.00 in0.0 mm
08:20 AM 77.4°F25.2°C 68.8°F20.4°C 75% Calm Calm -- 29.40 in995.6 mb 0.00 in0.0 mm 0.00 in0.0 mm 0.00 in0.0 mm
08:25 AM 77.5°F25.3°C 68.2°F20.1°C 73% 0.1 mph W0.2 kmh W 2.5 mph4.0 kmh 29.41 in995.9 mb 0.00 in0.0 mm 0.00 in0.0 mm 0.00 in0.0 mm
08:30 AM 77.8°F25.4°C 68.2°F20.1°C 72% Calm Calm -- 29.41 in995.9 mb 0.00 in0.0 mm 0.00 in0.0 mm 0.00 in0.0 mm
08:35 AM 79.6°F26.4°C 69.0°F20.6°C 70% Calm Calm -- 29.41 in995.9 mb 0.00 in0.0 mm 0.00 in0.0 mm 0.00 in0.0 mm
08:40 AM 79.7°F26.5°C 68.6°F20.3°C 69% Calm Calm 2.5 mph4.0 kmh 29.41 in995.9 mb 0.00 in0.0 mm 0.00 in0.0 mm 0.00 in0.0 mm
08:45 AM 79.7°F26.5°C 68.4°F20.2°C 68% 0.7 mph W1.1 kmh W 4.9 mph7.9 kmh 29.41 in995.9 mb 0.00 in0.0 mm 0.00 in0.0 mm 0.00 in0.0 mm
08:50 AM 79.5°F26.4°C 68.5°F20.3°C 69% Calm Calm -- 29.42 in996.3 mb 0.00 in0.0 mm 0.00 in0.0 mm 0.00 in0.0 mm
08:55 AM 79.2°F26.2°C 68.6°F20.3°C 70% Calm Calm -- 29.42 in996.3 mb 0.00 in0.0 mm 0.00 in0.0 mm 0.00 in0.0 mm
09:00 AM 79.2°F26.2°C 69.0°F20.6°C 71% Calm Calm -- 29.42 in996.3 mb 0.00 in0.0 mm 0.00 in0.0 mm 0.00 in0.0 mm
09:05 AM 79.2°F26.2°C 68.8°F20.4°C 71% Calm Calm -- 29.42 in996.3 mb 0.00 in0.0 mm 0.00 in0.0 mm 0.00 in0.0 mm
09:10 AM 79.3°F26.3°C 68.1°F20.1°C 69% Calm Calm -- 29.42 in996.3 mb 0.00 in0.0 mm 0.00 in0.0 mm 0.00 in0.0 mm
09:15 AM 80.1°F26.7°C 68.3°F20.2°C 67% Calm Calm -- 29.42 in996.3 mb 0.00 in0.0 mm 0.00 in0.0 mm 0.00 in0.0 mm
09:20 AM 80.1°F26.7°C 67.4°F19.7°C 65% 0.3 mph WSW0.5 kmh WSW 2.5 mph4.0 kmh 29.42 in996.3 mb 0.00 in0.0 mm 0.00 in0.0 mm 0.00 in0.0 mm
09:25 AM 80.2°F26.8°C 67.0°F19.4°C 64% 0.2 mph SW0.3 kmh SW 2.5 mph4.0 kmh 29.42 in996.3 mb 0.00 in0.0 mm 0.00 in0.0 mm 0.00 in0.0 mm
09:30 AM 80.3°F26.8°C 67.2°F19.6°C 64% 0.1 mph SW0.2 kmh SW 2.5 mph4.0 kmh 29.42 in996.3 mb 0.00 in0.0 mm 0.00 in0.0 mm 0.00 in0.0 mm
09:35 AM 81.5°F27.5°C 67.3°F19.6°C 62% 0.3 mph W0.5 kmh W 2.5 mph4.0 kmh 29.43 in996.6 mb 0.00 in0.0 mm 0.00 in0.0 mm 0.00 in0.0 mm
09:40 AM 81.5°F27.5°C 67.3°F19.6°C 62% 0.7 mph WSW1.1 kmh WSW 4.9 mph7.9 kmh 29.43 in996.6 mb 0.00 in0.0 mm 0.00 in0.0 mm 0.00 in0.0 mm
09:45 AM 81.5°F27.5°C 67.8°F19.9°C 63% 0.1 mph WSW0.2 kmh WSW 2.5 mph4.0 kmh 29.43 in996.6 mb 0.00 in0.0 mm 0.00 in0.0 mm 0.00 in0.0 mm
09:50 AM 81.5°F27.5°C 68.0°F20.0°C 64% 0.7 mph W1.1 kmh W 4.9 mph7.9 kmh 29.43 in996.6 mb 0.00 in0.0 mm 0.00 in0.0 mm 0.00 in0.0 mm
09:55 AM 82.9°F28.3°C 68.2°F20.1°C 61% 1.1 mph SE1.8 kmh SE 4.9 mph7.9 kmh 29.43 in996.6 mb 0.00 in0.0 mm 0.00 in0.0 mm 0.00 in0.0 mm
10:00 AM 83.0°F28.3°C 67.4°F19.7°C 60% 0.7 mph SW1.1 kmh SW 4.9 mph7.9 kmh 29.43 in996.6 mb 0.00 in0.0 mm 0.00 in0.0 mm 0.00 in0.0 mm
10:05 AM 83.3°F28.5°C 66.8°F19.3°C 58% Calm Calm 2.5 mph4.0 kmh 29.43 in996.6 mb 0.00 in0.0 mm 0.00 in0.0 mm 0.00 in0.0 mm
10:10 AM 83.6°F28.7°C 66.4°F19.1°C 56% Calm Calm -- 29.43 in996.6 mb 0.00 in0.0 mm 0.00 in0.0 mm 0.00 in0.0 mm
10:15 AM 85.1°F29.5°C 67.9°F19.9°C 56% 0.1 mph W0.2 kmh W 2.5 mph4.0 kmh 29.43 in996.6 mb 0.00 in0.0 mm 0.00 in0.0 mm 0.00 in0.0 mm
10:20 AM 85.2°F29.6°C 67.3°F19.6°C 55% 0.1 mph WSW0.2 kmh WSW 2.5 mph4.0 kmh 29.44 in997.0 mb 0.00 in0.0 mm 0.00 in0.0 mm 0.00 in0.0 mm
10:25 AM 85.0°F29.4°C 67.4°F19.7°C 56% 0.9 mph WSW1.4 kmh WSW 2.5 mph4.0 kmh 29.43 in996.6 mb 0.00 in0.0 mm 0.00 in0.0 mm 0.00 in0.0 mm
10:30 AM 84.6°F29.2°C 67.2°F19.6°C 56% 0.2 mph W0.3 kmh W 2.5 mph4.0 kmh 29.44 in997.0 mb 0.00 in0.0 mm 0.00 in0.0 mm 0.00 in0.0 mm
10:35 AM 82.7°F28.2°C 66.4°F19.1°C 58% 0.1 mph WSW0.2 kmh WSW 2.5 mph4.0 kmh 29.44 in997.0 mb 0.00 in0.0 mm 0.00 in0.0 mm 0.00 in0.0 mm
10:40 AM 82.2°F27.9°C 66.2°F19.0°C 59% Calm Calm 2.5 mph4.0 kmh 29.44 in997.0 mb 0.00 in0.0 mm 0.00 in0.0 mm 0.00 in0.0 mm
10:45 AM 82.2°F27.9°C 66.0°F18.9°C 58% Calm Calm 2.5 mph4.0 kmh 29.44 in997.0 mb 0.00 in0.0 mm 0.00 in0.0 mm 0.00 in0.0 mm
10:50 AM 82.4°F28.0°C 65.1°F18.4°C 56% 0.3 mph WSW0.5 kmh WSW 2.5 mph4.0 kmh 29.44 in997.0 mb 0.00 in0.0 mm 0.00 in0.0 mm 0.00 in0.0 mm
10:55 AM 83.9°F28.8°C 65.9°F18.8°C 55% 1.1 mph WSW1.8 kmh WSW 4.9 mph7.9 kmh 29.44 in997.0 mb 0.00 in0.0 mm 0.00 in0.0 mm 0.00 in0.0 mm
11:00 AM 84.7°F29.3°C 65.5°F18.6°C 53% 2.9 mph W4.7 kmh W 7.4 mph11.9 kmh 29.43 in996.6 mb 0.00 in0.0 mm 0.00 in0.0 mm 0.00 in0.0 mm
11:05 AM 84.7°F29.3°C 65.6°F18.7°C 53% 1.1 mph WSW1.8 kmh WSW 2.5 mph4.0 kmh 29.44 in997.0 mb 0.00 in0.0 mm 0.00 in0.0 mm 0.00 in0.0 mm
11:10 AM 84.9°F29.4°C 65.2°F18.4°C 52% 0.2 mph W0.3 kmh W 2.5 mph4.0 kmh 29.44 in997.0 mb 0.00 in0.0 mm 0.00 in0.0 mm 0.00 in0.0 mm
11:15 AM 87.4°F30.8°C 66.2°F19.0°C 50% 0.1 mph SSW0.2 kmh SSW 2.5 mph4.0 kmh 29.44 in997.0 mb 0.00 in0.0 mm 0.00 in0.0 mm 0.00 in0.0 mm
11:20 AM 87.5°F30.8°C 66.3°F19.1°C 50% 0.9 mph WSW1.4 kmh WSW 4.9 mph7.9 kmh 29.44 in997.0 mb 0.00 in0.0 mm 0.00 in0.0 mm 0.00 in0.0 mm
11:25 AM 87.4°F30.8°C 66.2°F19.0°C 50% 0.4 mph WSW0.6 kmh WSW 2.5 mph4.0 kmh 29.43 in996.6 mb 0.00 in0.0 mm 0.00 in0.0 mm 0.00 in0.0 mm
11:30 AM 87.4°F30.8°C 65.9°F18.8°C 49% 1.8 mph WSW2.9 kmh WSW 4.9 mph7.9 kmh 29.44 in997.0 mb 0.00 in0.0 mm 0.00 in0.0 mm 0.00 in0.0 mm
11:35 AM 88.0°F31.1°C 64.7°F18.2°C 46% 1.3 mph W2.1 kmh W 2.5 mph4.0 kmh 29.43 in996.6 mb 0.00 in0.0 mm 0.00 in0.0 mm 0.00 in0.0 mm
11:40 AM 88.7°F31.5°C 63.3°F17.4°C 43% 0.1 mph WSW0.2 kmh WSW 2.5 mph4.0 kmh 29.43 in996.6 mb 0.00 in0.0 mm 0.00 in0.0 mm 0.00 in0.0 mm
11:45 AM 88.9°F31.6°C 64.0°F17.8°C 44% 0.9 mph WSW1.4 kmh WSW 2.5 mph4.0 kmh 29.43 in996.6 mb 0.00 in0.0 mm 0.00 in0.0 mm 0.00 in0.0 mm
11:50 AM 88.9°F31.6°C 63.8°F17.7°C 44% 2.1 mph SSE3.4 kmh SSE 4.9 mph7.9 kmh 29.43 in996.6 mb 0.00 in0.0 mm 0.00 in0.0 mm 0.00 in0.0 mm
11:55 AM 89.5°F31.9°C 64.4°F18.0°C 44% 0.8 mph NW1.3 kmh NW 2.5 mph4.0 kmh 29.43 in996.6 mb 0.00 in0.0 mm 0.00 in0.0 mm 0.00 in0.0 mm
12:00 PM 90.0°F32.2°C 65.1°F18.4°C 44% 1.4 mph SSW2.3 kmh SSW 4.9 mph7.9 kmh 29.42 in996.3 mb 0.00 in0.0 mm 0.00 in0.0 mm 0.00 in0.0 mm
12:05 PM 90.0°F32.2°C 64.7°F18.2°C 43% 0.6 mph W1.0 kmh W 2.5 mph4.0 kmh 29.43 in996.6 mb 0.00 in0.0 mm 0.00 in0.0 mm 0.00 in0.0 mm
12:10 PM 89.9°F32.2°C 65.4°F18.6°C 45% 2.0 mph WNW3.2 kmh WNW 4.9 mph7.9 kmh 29.42 in996.3 mb 0.00 in0.0 mm 0.00 in0.0 mm 0.00 in0.0 mm
12:15 PM 89.0°F31.7°C 66.7°F19.3°C 48% 1.1 mph W1.8 kmh W 4.9 mph7.9 kmh 29.42 in996.3 mb 0.00 in0.0 mm 0.00 in0.0 mm 0.00 in0.0 mm
12:20 PM 88.0°F31.1°C 65.8°F18.8°C 48% 2.5 mph NNW4.0 kmh NNW 4.9 mph7.9 kmh 29.42 in996.3 mb 0.00 in0.0 mm 0.00 in0.0 mm 0.00 in0.0 mm
12:25 PM 88.0°F31.1°C 66.4°F19.1°C 49% 1.1 mph W1.8 kmh W 4.9 mph7.9 kmh 29.42 in996.3 mb 0.00 in0.0 mm 0.00 in0.0 mm 0.00 in0.0 mm
12:30 PM 88.1°F31.2°C 66.5°F19.2°C 49% 2.2 mph NW3.5 kmh NW 7.4 mph11.9 kmh 29.41 in995.9 mb 0.00 in0.0 mm 0.00 in0.0 mm 0.00 in0.0 mm
12:35 PM 88.2°F31.2°C 66.8°F19.3°C 49% 1.4 mph WNW2.3 kmh WNW 2.5 mph4.0 kmh 29.41 in995.9 mb 0.00 in0.0 mm 0.00 in0.0 mm 0.00 in0.0 mm
12:40 PM 88.2°F31.2°C 66.7°F19.3°C 49% 1.0 mph WSW1.6 kmh WSW 2.5 mph4.0 kmh 29.41 in995.9 mb 0.00 in0.0 mm 0.00 in0.0 mm 0.00 in0.0 mm
12:45 PM 88.3°F31.3°C 66.3°F19.1°C 48% 0.6 mph WNW1.0 kmh WNW 2.5 mph4.0 kmh 29.41 in995.9 mb 0.00 in0.0 mm 0.00 in0.0 mm 0.00 in0.0 mm
12:50 PM 88.4°F31.3°C 65.8°F18.8°C 47% 1.4 mph W2.3 kmh W 2.5 mph4.0 kmh 29.41 in995.9 mb 0.00 in0.0 mm 0.00 in0.0 mm 0.00 in0.0 mm
12:55 PM 88.9°F31.6°C 65.4°F18.6°C 46% 0.7 mph W1.1 kmh W 4.9 mph7.9 kmh 29.41 in995.9 mb 0.00 in0.0 mm 0.00 in0.0 mm 0.00 in0.0 mm
01:00 PM 90.1°F32.3°C 66.1°F18.9°C 45% 0.5 mph W0.8 kmh W 2.5 mph4.0 kmh 29.41 in995.9 mb 0.00 in0.0 mm 0.00 in0.0 mm 0.00 in0.0 mm
01:05 PM 90.1°F32.3°C 64.3°F17.9°C 43% 0.5 mph W0.8 kmh W 2.5 mph4.0 kmh 29.40 in995.6 mb 0.00 in0.0 mm 0.00 in0.0 mm 0.00 in0.0 mm
01:10 PM 90.5°F32.5°C 62.5°F16.9°C 40% 0.9 mph W1.4 kmh W 7.4 mph11.9 kmh 29.40 in995.6 mb 0.00 in0.0 mm 0.00 in0.0 mm 0.00 in0.0 mm
01:15 PM 91.0°F32.8°C 63.3°F17.4°C 40% 0.6 mph W1.0 kmh W 2.5 mph4.0 kmh 29.40 in995.6 mb 0.00 in0.0 mm 0.00 in0.0 mm 0.00 in0.0 mm
01:20 PM 91.4°F33.0°C 63.8°F17.7°C 40% 0.9 mph WSW1.4 kmh WSW 4.9 mph7.9 kmh 29.40 in995.6 mb 0.00 in0.0 mm 0.00 in0.0 mm 0.00 in0.0 mm
01:25 PM 91.4°F33.0°C 64.5°F18.1°C 41% 1.0 mph WSW1.6 kmh WSW 4.9 mph7.9 kmh 29.40 in995.6 mb 0.00 in0.0 mm 0.00 in0.0 mm 0.00 in0.0 mm
01:30 PM 91.3°F32.9°C 64.3°F17.9°C 41% 1.3 mph SW2.1 kmh SW 2.5 mph4.0 kmh 29.39 in995.3 mb 0.00 in0.0 mm 0.00 in0.0 mm 0.00 in0.0 mm
01:35 PM 91.6°F33.1°C 64.1°F17.8°C 40% 0.1 mph SW0.2 kmh SW 2.5 mph4.0 kmh 29.40 in995.6 mb 0.00 in0.0 mm 0.00 in0.0 mm 0.00 in0.0 mm
01:40 PM 92.7°F33.7°C 63.9°F17.7°C 39% 0.6 mph WSW1.0 kmh WSW 2.5 mph4.0 kmh 29.40 in995.6 mb 0.00 in0.0 mm 0.00 in0.0 mm 0.00 in0.0 mm
01:45 PM 92.6°F33.7°C 64.7°F18.2°C 40% 1.5 mph WSW2.4 kmh WSW 4.9 mph7.9 kmh 29.39 in995.3 mb 0.00 in0.0 mm 0.00 in0.0 mm 0.00 in0.0 mm
01:50 PM 92.4°F33.6°C 64.8°F18.2°C 40% Calm Calm 2.5 mph4.0 kmh 29.39 in995.3 mb 0.00 in0.0 mm 0.00 in0.0 mm 0.00 in0.0 mm
01:55 PM 92.6°F33.7°C 62.8°F17.1°C 37% 3.3 mph NW5.3 kmh NW 7.4 mph11.9 kmh 29.39 in995.3 mb 0.00 in0.0 mm 0.00 in0.0 mm 0.00 in0.0 mm
02:00 PM 93.2°F34.0°C 62.5°F16.9°C 36% 0.4 mph WSW0.6 kmh WSW 2.5 mph4.0 kmh 29.39 in995.3 mb 0.00 in0.0 mm 0.00 in0.0 mm 0.00 in0.0 mm
02:05 PM 93.4°F34.1°C 61.6°F16.4°C 35% 2.4 mph S3.9 kmh S 9.8 mph15.8 kmh 29.39 in995.3 mb 0.00 in0.0 mm 0.00 in0.0 mm 0.00 in0.0 mm
02:10 PM 93.6°F34.2°C 62.9°F17.2°C 36% 2.0 mph SE3.2 kmh SE 4.9 mph7.9 kmh 29.38 in994.9 mb 0.00 in0.0 mm 0.00 in0.0 mm 0.00 in0.0 mm
02:15 PM 93.6°F34.2°C 63.1°F17.3°C 37% 1.2 mph W1.9 kmh W 2.5 mph4.0 kmh 29.39 in995.3 mb 0.00 in0.0 mm 0.00 in0.0 mm 0.00 in0.0 mm
02:20 PM 93.6°F34.2°C 65.3°F18.5°C 40% 1.7 mph W2.7 kmh W 7.4 mph11.9 kmh 29.38 in994.9 mb 0.00 in0.0 mm 0.00 in0.0 mm 0.00 in0.0 mm
02:25 PM 93.3°F34.1°C 65.2°F18.4°C 40% 0.9 mph WSW1.4 kmh WSW 2.5 mph4.0 kmh 29.38 in994.9 mb 0.00 in0.0 mm 0.00 in0.0 mm 0.00 in0.0 mm
02:30 PM 93.0°F33.9°C 65.1°F18.4°C 40% 1.1 mph W1.8 kmh W 2.5 mph4.0 kmh 29.37 in994.6 mb 0.00 in0.0 mm 0.00 in0.0 mm 0.00 in0.0 mm
02:35 PM 92.7°F33.7°C 65.3°F18.5°C 41% 0.1 mph W0.2 kmh W 2.5 mph4.0 kmh 29.37 in994.6 mb 0.00 in0.0 mm 0.00 in0.0 mm 0.00 in0.0 mm
02:40 PM 90.1°F32.3°C 63.9°F17.7°C 42% 2.1 mph W3.4 kmh W 4.9 mph7.9 kmh 29.37 in994.6 mb 0.00 in0.0 mm 0.00 in0.0 mm 0.00 in0.0 mm
02:45 PM 90.4°F32.4°C 63.6°F17.6°C 41% 1.3 mph WSW2.1 kmh WSW 2.5 mph4.0 kmh 29.37 in994.6 mb 0.00 in0.0 mm 0.00 in0.0 mm 0.00 in0.0 mm
02:50 PM 90.8°F32.7°C 63.1°F17.3°C 40% 1.1 mph WSW1.8 kmh WSW 2.5 mph4.0 kmh 29.36 in994.2 mb 0.00 in0.0 mm 0.00 in0.0 mm 0.00 in0.0 mm
02:55 PM 91.2°F32.9°C 61.3°F16.3°C 37% 1.6 mph WSW2.6 kmh WSW 4.9 mph7.9 kmh 29.37 in994.6 mb 0.00 in0.0 mm 0.00 in0.0 mm 0.00 in0.0 mm
03:00 PM 93.5°F34.2°C 63.3°F17.4°C 37% 1.5 mph WSW2.4 kmh WSW 4.9 mph7.9 kmh 29.36 in994.2 mb 0.00 in0.0 mm 0.00 in0.0 mm 0.00 in0.0 mm
03:05 PM 93.7°F34.3°C 61.7°F16.5°C 35% 1.5 mph SSW2.4 kmh SSW 4.9 mph7.9 kmh 29.36 in994.2 mb 0.00 in0.0 mm 0.00 in0.0 mm 0.00 in0.0 mm
03:10 PM 93.9°F34.4°C 62.0°F16.7°C 35% 0.9 mph WSW1.4 kmh WSW 2.5 mph4.0 kmh 29.36 in994.2 mb 0.00 in0.0 mm 0.00 in0.0 mm 0.00 in0.0 mm
03:15 PM 93.9°F34.4°C 63.5°F17.5°C 37% 0.8 mph WSW1.3 kmh WSW 4.9 mph7.9 kmh 29.36 in994.2 mb 0.00 in0.0 mm 0.00 in0.0 mm 0.00 in0.0 mm
03:20 PM 93.2°F34.0°C 62.2°F16.8°C 36% 1.2 mph W1.9 kmh W 4.9 mph7.9 kmh 29.36 in994.2 mb 0.00 in0.0 mm 0.00 in0.0 mm 0.00 in0.0 mm
03:25 PM 93.3°F34.1°C 61.5°F16.4°C 35% 3.0 mph WSW4.8 kmh WSW 7.4 mph11.9 kmh 29.36 in994.2 mb 0.00 in0.0 mm 0.00 in0.0 mm 0.00 in0.0 mm
03:30 PM 93.7°F34.3°C 59.3°F15.2°C 32% 1.0 mph SSW1.6 kmh SSW 2.5 mph4.0 kmh 29.36 in994.2 mb 0.00 in0.0 mm 0.00 in0.0 mm 0.00 in0.0 mm
03:35 PM 94.3°F34.6°C 59.0°F15.0°C 31% 0.3 mph WSW0.5 kmh WSW 2.5 mph4.0 kmh 29.36 in994.2 mb 0.00 in0.0 mm 0.00 in0.0 mm 0.00 in0.0 mm
03:40 PM 96.1°F35.6°C 60.3°F15.7°C 31% 1.5 mph S2.4 kmh S 7.4 mph11.9 kmh 29.35 in993.9 mb 0.00 in0.0 mm 0.00 in0.0 mm 0.00 in0.0 mm
03:45 PM 96.1°F35.6°C 59.8°F15.4°C 30% 2.6 mph S4.2 kmh S 7.4 mph11.9 kmh 29.35 in993.9 mb 0.00 in0.0 mm 0.00 in0.0 mm 0.00 in0.0 mm
03:50 PM 96.1°F35.6°C 60.9°F16.1°C 31% 2.6 mph SSW4.2 kmh SSW 7.4 mph11.9 kmh 29.35 in993.9 mb 0.00 in0.0 mm 0.00 in0.0 mm 0.00 in0.0 mm
03:55 PM 96.0°F35.6°C 60.7°F15.9°C 31% 2.2 mph S3.5 kmh S 7.4 mph11.9 kmh 29.34 in993.6 mb 0.00 in0.0 mm 0.00 in0.0 mm 0.00 in0.0 mm
04:00 PM 93.9°F34.4°C 60.6°F15.9°C 33% 1.8 mph SE2.9 kmh SE 7.4 mph11.9 kmh 29.34 in993.6 mb 0.00 in0.0 mm 0.00 in0.0 mm 0.00 in0.0 mm
04:05 PM 93.8°F34.3°C 61.3°F16.3°C 34% 3.3 mph SSE5.3 kmh SSE 9.8 mph15.8 kmh 29.34 in993.6 mb 0.00 in0.0 mm 0.00 in0.0 mm 0.00 in0.0 mm
04:10 PM 93.6°F34.2°C 60.9°F16.1°C 34% 0.8 mph S1.3 kmh S 2.5 mph4.0 kmh 29.35 in993.9 mb 0.00 in0.0 mm 0.00 in0.0 mm 0.00 in0.0 mm
04:15 PM 93.6°F34.2°C 59.8°F15.4°C 33% 0.8 mph SSE1.3 kmh SSE 2.5 mph4.0 kmh 29.34 in993.6 mb 0.00 in0.0 mm 0.00 in0.0 mm 0.00 in0.0 mm
04:20 PM 94.5°F34.7°C 60.9°F16.1°C 33% 3.5 mph SE5.6 kmh SE 4.9 mph7.9 kmh 29.34 in993.6 mb 0.00 in0.0 mm 0.00 in0.0 mm 0.00 in0.0 mm
04:25 PM 94.5°F34.7°C 63.2°F17.3°C 36% 1.3 mph E2.1 kmh E 4.9 mph7.9 kmh 29.34 in993.6 mb 0.00 in0.0 mm 0.00 in0.0 mm 0.00 in0.0 mm
04:30 PM 94.2°F34.6°C 63.7°F17.6°C 37% 1.0 mph E1.6 kmh E 4.9 mph7.9 kmh 29.34 in993.6 mb 0.00 in0.0 mm 0.00 in0.0 mm 0.00 in0.0 mm
04:35 PM 93.9°F34.4°C 65.3°F18.5°C 39% 0.8 mph WSW1.3 kmh WSW 2.5 mph4.0 kmh 29.34 in993.6 mb 0.00 in0.0 mm 0.00 in0.0 mm 0.00 in0.0 mm
04:40 PM 92.7°F33.7°C 64.5°F18.1°C 40% 0.6 mph SSE1.0 kmh SSE 2.5 mph4.0 kmh 29.34 in993.6 mb 0.00 in0.0 mm 0.00 in0.0 mm 0.00 in0.0 mm
04:45 PM 92.5°F33.6°C 63.6°F17.6°C 39% 0.5 mph SE0.8 kmh SE 2.5 mph4.0 kmh 29.34 in993.6 mb 0.00 in0.0 mm 0.00 in0.0 mm 0.00 in0.0 mm
04:50 PM 92.6°F33.7°C 64.1°F17.8°C 39% 1.3 mph NNE2.1 kmh NNE 2.5 mph4.0 kmh 29.34 in993.6 mb 0.00 in0.0 mm 0.00 in0.0 mm 0.00 in0.0 mm
04:55 PM 92.5°F33.6°C 64.8°F18.2°C 40% 0.8 mph N1.3 kmh N 2.5 mph4.0 kmh 29.34 in993.6 mb 0.00 in0.0 mm 0.00 in0.0 mm 0.00 in0.0 mm
05:00 PM 92.1°F33.4°C 64.6°F18.1°C 41% 0.3 mph SSE0.5 kmh SSE 2.5 mph4.0 kmh 29.34 in993.6 mb 0.00 in0.0 mm 0.00 in0.0 mm 0.00 in0.0 mm
05:05 PM 91.9°F33.3°C 64.8°F18.2°C 41% 0.6 mph NW1.0 kmh NW 2.5 mph4.0 kmh 29.33 in993.2 mb 0.00 in0.0 mm 0.00 in0.0 mm 0.00 in0.0 mm
05:10 PM 91.9°F33.3°C 63.9°F17.7°C 40% 0.4 mph NW0.6 kmh NW 2.5 mph4.0 kmh 29.33 in993.2 mb 0.00 in0.0 mm 0.00 in0.0 mm 0.00 in0.0 mm
05:15 PM 91.9°F33.3°C 64.8°F18.2°C 41% 0.7 mph E1.1 kmh E 4.9 mph7.9 kmh 29.33 in993.2 mb 0.00 in0.0 mm 0.00 in0.0 mm 0.00 in0.0 mm
05:20 PM 91.8°F33.2°C 64.5°F18.1°C 41% 1.0 mph S1.6 kmh S 2.5 mph4.0 kmh 29.33 in993.2 mb 0.00 in0.0 mm 0.00 in0.0 mm 0.00 in0.0 mm
05:25 PM 91.8°F33.2°C 63.1°F17.3°C 39% 1.1 mph S1.8 kmh S 7.4 mph11.9 kmh 29.33 in993.2 mb 0.00 in0.0 mm 0.00 in0.0 mm 0.00 in0.0 mm
05:30 PM 91.8°F33.2°C 61.3°F16.3°C 36% 1.3 mph NNW2.1 kmh NNW 2.5 mph4.0 kmh 29.33 in993.2 mb 0.00 in0.0 mm 0.00 in0.0 mm 0.00 in0.0 mm
05:35 PM 91.8°F33.2°C 60.7°F15.9°C 36% 2.0 mph S3.2 kmh S 4.9 mph7.9 kmh 29.33 in993.2 mb 0.00 in0.0 mm 0.00 in0.0 mm 0.00 in0.0 mm
05:40 PM 91.1°F32.8°C 62.7°F17.1°C 39% 1.3 mph NE2.1 kmh NE 7.4 mph11.9 kmh 29.33 in993.2 mb 0.00 in0.0 mm 0.00 in0.0 mm 0.00 in0.0 mm
05:45 PM 90.7°F32.6°C 61.6°F16.4°C 38% Calm Calm 2.5 mph4.0 kmh 29.33 in993.2 mb 0.00 in0.0 mm 0.00 in0.0 mm 0.00 in0.0 mm
05:50 PM 90.7°F32.6°C 60.3°F15.7°C 36% 0.2 mph WSW0.3 kmh WSW 2.5 mph4.0 kmh 29.33 in993.2 mb 0.00 in0.0 mm 0.00 in0.0 mm 0.00 in0.0 mm
05:55 PM 90.7°F32.6°C 61.9°F16.6°C 38% 0.2 mph NW0.3 kmh NW 2.5 mph4.0 kmh 29.32 in992.9 mb 0.00 in0.0 mm 0.00 in0.0 mm 0.00 in0.0 mm
06:00 PM 90.3°F32.4°C 62.2°F16.8°C 39% 1.2 mph SE1.9 kmh SE 2.5 mph4.0 kmh 29.34 in993.6 mb 0.00 in0.0 mm 0.00 in0.0 mm 0.00 in0.0 mm
06:05 PM 90.0°F32.2°C 61.9°F16.6°C 39% Calm Calm -- 29.32 in992.9 mb 0.00 in0.0 mm 0.00 in0.0 mm 0.00 in0.0 mm
06:10 PM 90.0°F32.2°C 61.7°F16.5°C 39% 0.2 mph SE0.3 kmh SE 2.5 mph4.0 kmh 29.33 in993.2 mb 0.00 in0.0 mm 0.00 in0.0 mm 0.00 in0.0 mm
06:15 PM 90.0°F32.2°C 62.4°F16.9°C 40% Calm Calm -- 29.33 in993.2 mb 0.00 in0.0 mm 0.00 in0.0 mm 0.00 in0.0 mm
06:20 PM 89.8°F32.1°C 62.8°F17.1°C 41% 0.1 mph SE0.2 kmh SE 2.5 mph4.0 kmh 29.33 in993.2 mb 0.00 in0.0 mm 0.00 in0.0 mm 0.00 in0.0 mm
06:25 PM 89.7°F32.1°C 61.7°F16.5°C 39% Calm Calm -- 29.32 in992.9 mb 0.00 in0.0 mm 0.00 in0.0 mm 0.00 in0.0 mm
06:30 PM 89.6°F32.0°C 62.6°F17.0°C 41% Calm Calm -- 29.33 in993.2 mb 0.00 in0.0 mm 0.00 in0.0 mm 0.00 in0.0 mm
06:35 PM 89.6°F32.0°C 64.8°F18.2°C 44% Calm Calm -- 29.33 in993.2 mb 0.00 in0.0 mm 0.00 in0.0 mm 0.00 in0.0 mm
06:40 PM 89.1°F31.7°C 65.3°F18.5°C 46% Calm Calm -- 29.33 in993.2 mb 0.00 in0.0 mm 0.00 in0.0 mm 0.00 in0.0 mm
06:45 PM 88.7°F31.5°C 66.4°F19.1°C 48% Calm Calm -- 29.33 in993.2 mb 0.00 in0.0 mm 0.00 in0.0 mm 0.00 in0.0 mm
06:50 PM 88.7°F31.5°C 65.9°F18.8°C 47% 0.4 mph SSE0.6 kmh SSE 2.5 mph4.0 kmh 29.32 in992.9 mb 0.00 in0.0 mm 0.00 in0.0 mm 0.00 in0.0 mm
06:55 PM 88.5°F31.4°C 62.4°F16.9°C 42% 0.1 mph SSE0.2 kmh SSE 2.5 mph4.0 kmh 29.33 in993.2 mb 0.00 in0.0 mm 0.00 in0.0 mm 0.00 in0.0 mm
07:00 PM 88.5°F31.4°C 62.8°F17.1°C 42% Calm Calm -- 29.32 in992.9 mb 0.00 in0.0 mm 0.00 in0.0 mm 0.00 in0.0 mm
07:05 PM 88.5°F31.4°C 63.8°F17.7°C 44% 0.4 mph SE0.6 kmh SE 2.5 mph4.0 kmh 29.32 in992.9 mb 0.00 in0.0 mm 0.00 in0.0 mm 0.00 in0.0 mm
07:10 PM 88.4°F31.3°C 63.7°F17.6°C 44% 1.0 mph ESE1.6 kmh ESE 2.5 mph4.0 kmh 29.32 in992.9 mb 0.00 in0.0 mm 0.00 in0.0 mm 0.00 in0.0 mm
07:15 PM 88.3°F31.3°C 63.3°F17.4°C 44% 1.9 mph SSE3.1 kmh SSE 4.9 mph7.9 kmh 29.33 in993.2 mb 0.00 in0.0 mm 0.00 in0.0 mm 0.00 in0.0 mm
07:20 PM 88.1°F31.2°C 63.5°F17.5°C 44% 0.6 mph S1.0 kmh S 2.5 mph4.0 kmh 29.33 in993.2 mb 0.00 in0.0 mm 0.00 in0.0 mm 0.00 in0.0 mm
07:25 PM 87.6°F30.9°C 64.0°F17.8°C 46% 1.5 mph SE2.4 kmh SE 2.5 mph4.0 kmh 29.32 in992.9 mb 0.00 in0.0 mm 0.00 in0.0 mm 0.00 in0.0 mm
07:30 PM 87.6°F30.9°C 64.2°F17.9°C 46% 2.0 mph SSE3.2 kmh SSE 4.9 mph7.9 kmh 29.33 in993.2 mb 0.00 in0.0 mm 0.00 in0.0 mm 0.00 in0.0 mm
07:35 PM 87.5°F30.8°C 65.1°F18.4°C 48% 1.7 mph SSE2.7 kmh SSE 2.5 mph4.0 kmh 29.33 in993.2 mb 0.00 in0.0 mm 0.00 in0.0 mm 0.00 in0.0 mm
07:40 PM 87.3°F30.7°C 66.0°F18.9°C 49% 0.5 mph ESE0.8 kmh ESE 2.5 mph4.0 kmh 29.33 in993.2 mb 0.00 in0.0 mm 0.00 in0.0 mm 0.00 in0.0 mm
07:45 PM 86.5°F30.3°C 65.7°F18.7°C 50% 0.7 mph ESE1.1 kmh ESE 2.5 mph4.0 kmh 29.33 in993.2 mb 0.00 in0.0 mm 0.00 in0.0 mm 0.00 in0.0 mm
07:50 PM 86.5°F30.3°C 66.0°F18.9°C 51% 0.5 mph SE0.8 kmh SE 2.5 mph4.0 kmh 29.33 in993.2 mb 0.00 in0.0 mm 0.00 in0.0 mm 0.00 in0.0 mm
07:55 PM 86.5°F30.3°C 66.2°F19.0°C 51% 1.3 mph ESE2.1 kmh ESE 4.9 mph7.9 kmh 29.34 in993.6 mb 0.00 in0.0 mm 0.00 in0.0 mm 0.00 in0.0 mm
08:00 PM 86.4°F30.2°C 66.4°F19.1°C 52% 0.5 mph SE0.8 kmh SE 2.5 mph4.0 kmh 29.33 in993.2 mb 0.00 in0.0 mm 0.00 in0.0 mm 0.00 in0.0 mm
08:05 PM 86.0°F30.0°C 66.3°F19.1°C 52% 0.4 mph SE0.6 kmh SE 2.5 mph4.0 kmh 29.34 in993.6 mb 0.00 in0.0 mm 0.00 in0.0 mm 0.00 in0.0 mm
08:10 PM 86.0°F30.0°C 67.0°F19.4°C 53% 0.8 mph SSE1.3 kmh SSE 2.5 mph4.0 kmh 29.33 in993.2 mb 0.00 in0.0 mm 0.00 in0.0 mm 0.00 in0.0 mm
08:15 PM 86.0°F30.0°C 67.5°F19.7°C 54% 0.5 mph SSE0.8 kmh SSE 2.5 mph4.0 kmh 29.33 in993.2 mb 0.00 in0.0 mm 0.00 in0.0 mm 0.00 in0.0 mm
08:20 PM 85.8°F29.9°C 67.7°F19.8°C 55% 0.8 mph SSE1.3 kmh SSE 2.5 mph4.0 kmh 29.34 in993.6 mb 0.00 in0.0 mm 0.00 in0.0 mm 0.00 in0.0 mm
08:25 PM 85.6°F29.8°C 67.5°F19.7°C 55% 0.4 mph SE0.6 kmh SE 2.5 mph4.0 kmh 29.34 in993.6 mb 0.00 in0.0 mm 0.00 in0.0 mm 0.00 in0.0 mm
08:30 PM 85.5°F29.7°C 67.5°F19.7°C 55% 0.6 mph ESE1.0 kmh ESE 2.5 mph4.0 kmh 29.34 in993.6 mb 0.00 in0.0 mm 0.00 in0.0 mm 0.00 in0.0 mm
08:35 PM 85.5°F29.7°C 67.5°F19.7°C 55% 0.5 mph SE0.8 kmh SE 2.5 mph4.0 kmh 29.34 in993.6 mb 0.00 in0.0 mm 0.00 in0.0 mm 0.00 in0.0 mm
08:40 PM 85.5°F29.7°C 67.5°F19.7°C 55% 0.7 mph E1.1 kmh E 2.5 mph4.0 kmh 29.34 in993.6 mb 0.00 in0.0 mm 0.00 in0.0 mm 0.00 in0.0 mm
08:45 PM 85.3°F29.6°C 67.3°F19.6°C 55% 0.6 mph SE1.0 kmh SE 2.5 mph4.0 kmh 29.34 in993.6 mb 0.00 in0.0 mm 0.00 in0.0 mm 0.00 in0.0 mm
08:50 PM 85.3°F29.6°C 67.5°F19.7°C 55% 1.0 mph SE1.6 kmh SE 2.5 mph4.0 kmh 29.35 in993.9 mb 0.00 in0.0 mm 0.00 in0.0 mm 0.00 in0.0 mm
08:55 PM 85.2°F29.6°C 67.2°F19.6°C 55% 1.6 mph SSE2.6 kmh SSE 2.5 mph4.0 kmh 29.35 in993.9 mb 0.00 in0.0 mm 0.00 in0.0 mm 0.00 in0.0 mm
09:00 PM 85.1°F29.5°C 66.8°F19.3°C 54% 0.7 mph SE1.1 kmh SE 4.9 mph7.9 kmh 29.35 in993.9 mb 0.00 in0.0 mm 0.00 in0.0 mm 0.00 in0.0 mm
09:05 PM 85.1°F29.5°C 66.6°F19.2°C 54% 1.6 mph SSE2.6 kmh SSE 2.5 mph4.0 kmh 29.36 in994.2 mb 0.00 in0.0 mm 0.00 in0.0 mm 0.00 in0.0 mm
09:10 PM 85.1°F29.5°C 66.0°F18.9°C 53% 2.1 mph S3.4 kmh S 2.5 mph4.0 kmh 29.36 in994.2 mb 0.00 in0.0 mm 0.00 in0.0 mm 0.00 in0.0 mm
09:15 PM 85.1°F29.5°C 66.0°F18.9°C 53% 2.3 mph S3.7 kmh S 7.4 mph11.9 kmh 29.36 in994.2 mb 0.00 in0.0 mm 0.00 in0.0 mm 0.00 in0.0 mm
09:20 PM 85.1°F29.5°C 66.0°F18.9°C 53% 0.3 mph S0.5 kmh S 2.5 mph4.0 kmh 29.36 in994.2 mb 0.00 in0.0 mm 0.00 in0.0 mm 0.00 in0.0 mm
09:25 PM 85.1°F29.5°C 66.0°F18.9°C 53% 1.5 mph S2.4 kmh S 4.9 mph7.9 kmh 29.36 in994.2 mb 0.00 in0.0 mm 0.00 in0.0 mm 0.00 in0.0 mm
09:30 PM 85.1°F29.5°C 66.0°F18.9°C 53% 1.3 mph S2.1 kmh S 2.5 mph4.0 kmh 29.36 in994.2 mb 0.00 in0.0 mm 0.00 in0.0 mm 0.00 in0.0 mm
09:35 PM 85.1°F29.5°C 66.0°F18.9°C 53% 1.8 mph S2.9 kmh S 4.9 mph7.9 kmh 29.37 in994.6 mb 0.00 in0.0 mm 0.00 in0.0 mm 0.00 in0.0 mm
09:40 PM 85.0°F29.4°C 65.9°F18.8°C 53% 0.2 mph S0.3 kmh S 2.5 mph4.0 kmh 29.37 in994.6 mb 0.00 in0.0 mm 0.00 in0.0 mm 0.00 in0.0 mm
09:45 PM 84.7°F29.3°C 66.2°F19.0°C 54% 1.9 mph SSE3.1 kmh SSE 7.4 mph11.9 kmh 29.37 in994.6 mb 0.00 in0.0 mm 0.00 in0.0 mm 0.00 in0.0 mm
09:50 PM 84.7°F29.3°C 66.2°F19.0°C 54% 1.1 mph SSW1.8 kmh SSW 4.9 mph7.9 kmh 29.37 in994.6 mb 0.00 in0.0 mm 0.00 in0.0 mm 0.00 in0.0 mm
09:55 PM 84.7°F29.3°C 66.6°F19.2°C 55% 0.3 mph S0.5 kmh S 2.5 mph4.0 kmh 29.37 in994.6 mb 0.00 in0.0 mm 0.00 in0.0 mm 0.00 in0.0 mm
10:00 PM 84.7°F29.3°C 66.8°F19.3°C 55% 0.7 mph S1.1 kmh S 2.5 mph4.0 kmh 29.37 in994.6 mb 0.00 in0.0 mm 0.00 in0.0 mm 0.00 in0.0 mm
10:05 PM 84.4°F29.1°C 67.0°F19.4°C 56% 1.3 mph S2.1 kmh S 2.5 mph4.0 kmh 29.38 in994.9 mb 0.00 in0.0 mm 0.00 in0.0 mm 0.00 in0.0 mm
10:10 PM 84.4°F29.1°C 67.0°F19.4°C 56% 1.5 mph SSE2.4 kmh SSE 4.9 mph7.9 kmh 29.38 in994.9 mb 0.00 in0.0 mm 0.00 in0.0 mm 0.00 in0.0 mm
10:15 PM 84.2°F29.0°C 66.8°F19.3°C 56% 0.3 mph S0.5 kmh S 2.5 mph4.0 kmh 29.38 in994.9 mb 0.00 in0.0 mm 0.00 in0.0 mm 0.00 in0.0 mm
10:20 PM 84.2°F29.0°C 67.3°F19.6°C 57% 1.2 mph SSE1.9 kmh SSE 2.5 mph4.0 kmh 29.38 in994.9 mb 0.00 in0.0 mm 0.00 in0.0 mm 0.00 in0.0 mm
10:25 PM 84.0°F28.9°C 67.6°F19.8°C 58% 1.1 mph S1.8 kmh S 2.5 mph4.0 kmh 29.39 in995.3 mb 0.00 in0.0 mm 0.00 in0.0 mm 0.00 in0.0 mm
10:30 PM 83.8°F28.8°C 67.7°F19.8°C 59% 0.3 mph S0.5 kmh S 2.5 mph4.0 kmh 29.38 in994.9 mb 0.00 in0.0 mm 0.00 in0.0 mm 0.00 in0.0 mm
10:35 PM 83.8°F28.8°C 67.9°F19.9°C 59% 0.8 mph S1.3 kmh S 2.5 mph4.0 kmh 29.38 in994.9 mb 0.00 in0.0 mm 0.00 in0.0 mm 0.00 in0.0 mm
10:40 PM 83.8°F28.8°C 67.9°F19.9°C 59% 1.9 mph S3.1 kmh S 2.5 mph4.0 kmh 29.38 in994.9 mb 0.00 in0.0 mm 0.00 in0.0 mm 0.00 in0.0 mm
10:45 PM 83.8°F28.8°C 67.7°F19.8°C 58% 1.8 mph S2.9 kmh S 4.9 mph7.9 kmh 29.38 in994.9 mb 0.00 in0.0 mm 0.00 in0.0 mm 0.00 in0.0 mm
10:50 PM 83.8°F28.8°C 67.7°F19.8°C 59% 1.5 mph S2.4 kmh S 2.5 mph4.0 kmh 29.38 in994.9 mb 0.00 in0.0 mm 0.00 in0.0 mm 0.00 in0.0 mm
10:55 PM 83.8°F28.8°C 67.7°F19.8°C 59% 1.3 mph S2.1 kmh S 4.9 mph7.9 kmh 29.38 in994.9 mb 0.00 in0.0 mm 0.00 in0.0 mm 0.00 in0.0 mm
11:00 PM 83.8°F28.8°C 67.9°F19.9°C 59% 1.9 mph SSE3.1 kmh SSE 4.9 mph7.9 kmh 29.38 in994.9 mb 0.00 in0.0 mm 0.00 in0.0 mm 0.00 in0.0 mm
11:05 PM 83.8°F28.8°C 67.9°F19.9°C 59% 0.2 mph S0.3 kmh S 2.5 mph4.0 kmh 29.39 in995.3 mb 0.00 in0.0 mm 0.00 in0.0 mm 0.00 in0.0 mm
11:10 PM 83.7°F28.7°C 67.8°F19.9°C 59% 1.1 mph S1.8 kmh S 4.9 mph7.9 kmh 29.39 in995.3 mb 0.00 in0.0 mm 0.00 in0.0 mm 0.00 in0.0 mm
11:15 PM 83.7°F28.7°C 67.8°F19.9°C 59% 0.7 mph S1.1 kmh S 2.5 mph4.0 kmh 29.39 in995.3 mb 0.00 in0.0 mm 0.00 in0.0 mm 0.00 in0.0 mm
11:20 PM 83.7°F28.7°C 67.8°F19.9°C 59% 0.4 mph S0.6 kmh S 2.5 mph4.0 kmh 29.39 in995.3 mb 0.00 in0.0 mm 0.00 in0.0 mm 0.00 in0.0 mm
11:25 PM 83.6°F28.7°C 67.8°F19.9°C 59% 0.5 mph S0.8 kmh S 2.5 mph4.0 kmh 29.39 in995.3 mb 0.00 in0.0 mm 0.00 in0.0 mm 0.00 in0.0 mm
11:30 PM 83.5°F28.6°C 67.9°F19.9°C 60% 1.1 mph S1.8 kmh S 2.5 mph4.0 kmh 29.39 in995.3 mb 0.00 in0.0 mm 0.00 in0.0 mm 0.00 in0.0 mm
11:35 PM 83.5°F28.6°C 68.1°F20.1°C 60% 0.6 mph S1.0 kmh S 4.9 mph7.9 kmh 29.39 in995.3 mb 0.00 in0.0 mm 0.00 in0.0 mm 0.00 in0.0 mm
11:40 PM 83.5°F28.6°C 68.1°F20.1°C 60% 1.4 mph S2.3 kmh S 2.5 mph4.0 kmh 29.39 in995.3 mb 0.00 in0.0 mm 0.00 in0.0 mm 0.00 in0.0 mm
11:45 PM 83.5°F28.6°C 68.1°F20.1°C 60% 1.2 mph SE1.9 kmh SE 2.5 mph4.0 kmh 29.39 in995.3 mb 0.00 in0.0 mm 0.00 in0.0 mm 0.00 in0.0 mm
11:50 PM 83.3°F28.5°C 67.9°F19.9°C 60% 0.9 mph S1.4 kmh S 4.9 mph7.9 kmh 29.39 in995.3 mb 0.00 in0.0 mm 0.00 in0.0 mm 0.00 in0.0 mm
11:55 PM 83.3°F28.5°C 67.9°F19.9°C 60% 1.7 mph S2.7 kmh S 2.5 mph4.0 kmh 29.39 in995.3 mb 0.00 in0.0 mm 0.00 in0.0 mm 0.00 in0.0 mm